AAL625 KSAN-KPHX
Flight info
| Callsign | AAL625 |
|---|---|
| Flight time | 0h 52m |
| Altitude | 33000 |
| Route | ZZOOO4 HOGGZ HYDRR1 |
| Aircraft | A321/M-SDE3FGHIRWY/LB1 |
Departure
| Time | 2026-04-26 22:26 |
|---|---|
| Airport | San Diego International Airport (KSAN) |
Arrival
| Time | 2026-04-26 23:19 |
|---|---|
| Airport | Phoenix Sky Harbor International Airport (KPHX) |
| Time | Latitude | Longitude | Altitude | Speed | Heading |
|---|---|---|---|---|---|
| 2026-04-26 21:56 | 32.73250 | -117.20158 | 21 ft | 0 kts | 110° |
| 2026-04-26 22:12 | 32.73252 | -117.20166 | 21 ft | 4 kts | 111° |
| 2026-04-26 22:12 | 32.73263 | -117.20196 | 24 ft | 4 kts | 117° |
| 2026-04-26 22:13 | 32.73276 | -117.20224 | 22 ft | 4 kts | 117° |
| 2026-04-26 22:13 | 32.73285 | -117.20250 | 22 ft | 4 kts | 67° |
| 2026-04-26 22:13 | 32.73300 | -117.20256 | 22 ft | 3 kts | 344° |
| 2026-04-26 22:13 | 32.73301 | -117.20256 | 21 ft | 0 kts | 342° |
| 2026-04-26 22:18 | 32.73303 | -117.20257 | 24 ft | 1 kts | 342° |
| 2026-04-26 22:18 | 32.73313 | -117.20261 | 22 ft | 2 kts | 342° |
| 2026-04-26 22:18 | 32.73329 | -117.20267 | 21 ft | 3 kts | 342° |
| 2026-04-26 22:19 | 32.73347 | -117.20273 | 21 ft | 3 kts | 346° |
| 2026-04-26 22:19 | 32.73374 | -117.20277 | 21 ft | 5 kts | 356° |
| 2026-04-26 22:19 | 32.73411 | -117.20271 | 21 ft | 6 kts | 12° |
| 2026-04-26 22:19 | 32.73455 | -117.20256 | 21 ft | 7 kts | 16° |
| 2026-04-26 22:20 | 32.73500 | -117.20241 | 23 ft | 6 kts | 15° |
| 2026-04-26 22:20 | 32.73528 | -117.20231 | 22 ft | 6 kts | 20° |
| 2026-04-26 22:20 | 32.73543 | -117.20155 | 23 ft | 10 kts | 103° |
| 2026-04-26 22:20 | 32.73520 | -117.20061 | 22 ft | 14 kts | 107° |
| 2026-04-26 22:21 | 32.73492 | -117.19948 | 23 ft | 14 kts | 106° |
| 2026-04-26 22:21 | 32.73466 | -117.19838 | 24 ft | 14 kts | 106° |
| 2026-04-26 22:21 | 32.73437 | -117.19722 | 23 ft | 15 kts | 106° |
| 2026-04-26 22:21 | 32.73407 | -117.19597 | 23 ft | 16 kts | 106° |
| 2026-04-26 22:22 | 32.73376 | -117.19471 | 23 ft | 16 kts | 106° |
| 2026-04-26 22:22 | 32.73344 | -117.19336 | 21 ft | 18 kts | 106° |
| 2026-04-26 22:22 | 32.73307 | -117.19186 | 20 ft | 19 kts | 106° |
| 2026-04-26 22:22 | 32.73271 | -117.19038 | 22 ft | 18 kts | 106° |
| 2026-04-26 22:23 | 32.73236 | -117.18890 | 23 ft | 19 kts | 106° |
| 2026-04-26 22:23 | 32.73200 | -117.18744 | 38 ft | 18 kts | 106° |
| 2026-04-26 22:23 | 32.73165 | -117.18597 | 22 ft | 20 kts | 106° |
| 2026-04-26 22:23 | 32.73125 | -117.18434 | 19 ft | 21 kts | 106° |
| 2026-04-26 22:24 | 32.73085 | -117.18266 | 20 ft | 21 kts | 106° |
| 2026-04-26 22:24 | 32.73041 | -117.18088 | 16 ft | 23 kts | 106° |
| 2026-04-26 22:24 | 32.72996 | -117.17901 | 16 ft | 24 kts | 106° |
| 2026-04-26 22:24 | 32.72962 | -117.17762 | 14 ft | 7 kts | 105° |
| 2026-04-26 22:25 | 32.72951 | -117.17702 | 14 ft | 7 kts | 93° |
| 2026-04-26 22:25 | 32.72959 | -117.17652 | 18 ft | 6 kts | 75° |
| 2026-04-26 22:25 | 32.72972 | -117.17597 | 18 ft | 8 kts | 68° |
| 2026-04-26 22:25 | 32.73022 | -117.17595 | 18 ft | 11 kts | 310° |
| 2026-04-26 22:26 | 32.73063 | -117.17754 | 17 ft | 43 kts | 286° |
| 2026-04-26 22:26 | 32.73213 | -117.18365 | 19 ft | 109 kts | 286° |
| 2026-04-26 22:26 | 32.73470 | -117.19442 | 48 ft | 157 kts | 286° |
| 2026-04-26 22:26 | 32.73758 | -117.20648 | 830 ft | 148 kts | 285° |
| 2026-04-26 22:27 | 32.74032 | -117.21829 | 1485 ft | 149 kts | 285° |
| 2026-04-26 22:27 | 32.74321 | -117.23046 | 1900 ft | 161 kts | 285° |
| 2026-04-26 22:27 | 32.74644 | -117.24388 | 2151 ft | 177 kts | 285° |
| 2026-04-26 22:27 | 32.75000 | -117.25854 | 2412 ft | 191 kts | 285° |
| 2026-04-26 22:28 | 32.75379 | -117.27404 | 2582 ft | 208 kts | 286° |
| 2026-04-26 22:28 | 32.75805 | -117.29149 | 2764 ft | 228 kts | 285° |
| 2026-04-26 22:28 | 32.76246 | -117.30966 | 3477 ft | 229 kts | 285° |
| 2026-04-26 22:28 | 32.76520 | -117.32822 | 4201 ft | 231 kts | 264° |
| 2026-04-26 22:29 | 32.75860 | -117.34540 | 4874 ft | 237 kts | 226° |
| 2026-04-26 22:29 | 32.74382 | -117.35415 | 5540 ft | 247 kts | 189° |
| 2026-04-26 22:29 | 32.72669 | -117.35040 | 6211 ft | 260 kts | 155° |
| 2026-04-26 22:29 | 32.71177 | -117.33769 | 6842 ft | 269 kts | 140° |
| 2026-04-26 22:30 | 32.69831 | -117.32198 | 7460 ft | 274 kts | 136° |
| 2026-04-26 22:30 | 32.68501 | -117.30550 | 8094 ft | 278 kts | 137° |
| 2026-04-26 22:30 | 32.67132 | -117.28912 | 8719 ft | 281 kts | 139° |
| 2026-04-26 22:30 | 32.65708 | -117.27304 | 9340 ft | 284 kts | 141° |
| 2026-04-26 22:31 | 32.64312 | -117.25664 | 9952 ft | 291 kts | 131° |
| 2026-04-26 22:31 | 32.63277 | -117.23576 | 10455 ft | 300 kts | 112° |
| 2026-04-26 22:31 | 32.62798 | -117.21074 | 10643 ft | 321 kts | 95° |
| 2026-04-26 22:31 | 32.62571 | -117.18344 | 10778 ft | 343 kts | 95° |
| 2026-04-26 22:32 | 32.62323 | -117.15445 | 10904 ft | 364 kts | 95° |
| 2026-04-26 22:32 | 32.62108 | -117.12375 | 11024 ft | 383 kts | 89° |
| 2026-04-26 22:32 | 32.62229 | -117.10262 | 11105 ft | 393 kts | 79° |
| 2026-04-26 22:32 | 32.62961 | -117.07073 | 11243 ft | 407 kts | 66° |
| 2026-04-26 22:33 | 32.64004 | -117.03908 | 11637 ft | 415 kts | 66° |
| 2026-04-26 22:33 | 32.66084 | -116.97425 | 12743 ft | 425 kts | 71° |
| 2026-04-26 22:33 | 32.66656 | -116.93959 | 13286 ft | 431 kts | 84° |
| 2026-04-26 22:34 | 32.66762 | -116.90385 | 13853 ft | 436 kts | 88° |
| 2026-04-26 22:34 | 32.66834 | -116.86776 | 14366 ft | 440 kts | 88° |
| 2026-04-26 22:34 | 32.66916 | -116.83122 | 14828 ft | 445 kts | 88° |
| 2026-04-26 22:34 | 32.67002 | -116.79476 | 15310 ft | 449 kts | 88° |
| 2026-04-26 22:35 | 32.67092 | -116.75744 | 15786 ft | 454 kts | 88° |
| 2026-04-26 22:35 | 32.67140 | -116.71969 | 16256 ft | 459 kts | 90° |
| 2026-04-26 22:35 | 32.67112 | -116.68166 | 16702 ft | 463 kts | 91° |
| 2026-04-26 22:35 | 32.67034 | -116.64330 | 17163 ft | 467 kts | 92° |
| 2026-04-26 22:36 | 32.66935 | -116.60461 | 17589 ft | 471 kts | 92° |
| 2026-04-26 22:36 | 32.66833 | -116.56559 | 17965 ft | 475 kts | 92° |
| 2026-04-26 22:36 | 32.66741 | -116.52620 | 18380 ft | 479 kts | 92° |
| 2026-04-26 22:36 | 32.66662 | -116.48650 | 18747 ft | 482 kts | 92° |
| 2026-04-26 22:37 | 32.66593 | -116.44651 | 19099 ft | 486 kts | 92° |
| 2026-04-26 22:37 | 32.66728 | -116.40679 | 19454 ft | 490 kts | 84° |
| 2026-04-26 22:37 | 32.67117 | -116.36641 | 19804 ft | 494 kts | 84° |
| 2026-04-26 22:37 | 32.67501 | -116.32572 | 20154 ft | 497 kts | 84° |
| 2026-04-26 22:38 | 32.67876 | -116.28478 | 20506 ft | 501 kts | 85° |
| 2026-04-26 22:38 | 32.68245 | -116.24349 | 20859 ft | 504 kts | 85° |
| 2026-04-26 22:38 | 32.68616 | -116.20192 | 21227 ft | 507 kts | 85° |
| 2026-04-26 22:38 | 32.68989 | -116.16013 | 21578 ft | 510 kts | 85° |
| 2026-04-26 22:39 | 32.69360 | -116.11809 | 21899 ft | 513 kts | 85° |
| 2026-04-26 22:39 | 32.69733 | -116.07577 | 22223 ft | 517 kts | 85° |
| 2026-04-26 22:39 | 32.70108 | -116.03321 | 22522 ft | 520 kts | 85° |
| 2026-04-26 22:39 | 32.70491 | -115.99037 | 22817 ft | 523 kts | 85° |
| 2026-04-26 22:40 | 32.70888 | -115.94723 | 23138 ft | 526 kts | 85° |
| 2026-04-26 22:40 | 32.71290 | -115.90443 | 23387 ft | 531 kts | 85° |
| 2026-04-26 22:40 | 32.71700 | -115.86075 | 23644 ft | 534 kts | 85° |
| 2026-04-26 22:40 | 32.72108 | -115.81689 | 23881 ft | 537 kts | 85° |
| 2026-04-26 22:41 | 32.72518 | -115.77245 | 24117 ft | 540 kts | 85° |
| 2026-04-26 22:41 | 32.72925 | -115.72798 | 24348 ft | 544 kts | 86° |
| 2026-04-26 22:41 | 32.73331 | -115.68315 | 24544 ft | 548 kts | 86° |
| 2026-04-26 22:41 | 32.73736 | -115.63790 | 24652 ft | 554 kts | 86° |
| 2026-04-26 22:42 | 32.74141 | -115.59215 | 24825 ft | 559 kts | 86° |
| 2026-04-26 22:42 | 32.74548 | -115.54617 | 25069 ft | 561 kts | 86° |
| 2026-04-26 22:42 | 32.74942 | -115.49995 | 25411 ft | 561 kts | 88° |
| 2026-04-26 22:42 | 32.75222 | -115.45366 | 25747 ft | 561 kts | 90° |
| 2026-04-26 22:43 | 32.75371 | -115.40736 | 26081 ft | 561 kts | 92° |
| 2026-04-26 22:43 | 32.75427 | -115.36101 | 26411 ft | 561 kts | 93° |
| 2026-04-26 22:43 | 32.75444 | -115.31468 | 26730 ft | 561 kts | 94° |
| 2026-04-26 22:43 | 32.75468 | -115.26816 | 27092 ft | 562 kts | 94° |
| 2026-04-26 22:44 | 32.75520 | -115.22227 | 27427 ft | 563 kts | 93° |
| 2026-04-26 22:44 | 32.75607 | -115.17568 | 27769 ft | 564 kts | 92° |
| 2026-04-26 22:44 | 32.75718 | -115.12912 | 28101 ft | 565 kts | 92° |
| 2026-04-26 22:44 | 32.75842 | -115.08249 | 28435 ft | 565 kts | 92° |
| 2026-04-26 22:45 | 32.75967 | -115.03574 | 28770 ft | 566 kts | 92° |
| 2026-04-26 22:45 | 32.76083 | -114.98896 | 29067 ft | 567 kts | 92° |
| 2026-04-26 22:45 | 32.76187 | -114.94207 | 29366 ft | 568 kts | 92° |
| 2026-04-26 22:45 | 32.76281 | -114.89511 | 29691 ft | 568 kts | 93° |
| 2026-04-26 22:46 | 32.76367 | -114.84813 | 30023 ft | 568 kts | 93° |
| 2026-04-26 22:46 | 32.76453 | -114.80113 | 30319 ft | 568 kts | 93° |
| 2026-04-26 22:46 | 32.76541 | -114.75410 | 30629 ft | 568 kts | 93° |
| 2026-04-26 22:46 | 32.76627 | -114.70722 | 30946 ft | 567 kts | 93° |
| 2026-04-26 22:47 | 32.76713 | -114.66039 | 31260 ft | 566 kts | 93° |
| 2026-04-26 22:47 | 32.76796 | -114.61359 | 31569 ft | 566 kts | 93° |
| 2026-04-26 22:47 | 32.76874 | -114.56755 | 31859 ft | 565 kts | 93° |
| 2026-04-26 22:47 | 32.76944 | -114.52093 | 32163 ft | 564 kts | 94° |
| 2026-04-26 22:48 | 32.77007 | -114.47415 | 32297 ft | 564 kts | 94° |
| 2026-04-26 22:48 | 32.77065 | -114.42737 | 31416 ft | 569 kts | 93° |
| 2026-04-26 22:48 | 32.77120 | -114.37982 | 30283 ft | 579 kts | 94° |
| 2026-04-26 22:48 | 32.77175 | -114.33190 | 29083 ft | 576 kts | 93° |
| 2026-04-26 22:49 | 32.77237 | -114.28461 | 28110 ft | 566 kts | 93° |
| 2026-04-26 22:49 | 32.77301 | -114.23823 | 27580 ft | 560 kts | 92° |
| 2026-04-26 22:49 | 32.77361 | -114.19223 | 26829 ft | 552 kts | 92° |
| 2026-04-26 22:49 | 32.77417 | -114.14778 | 26236 ft | 538 kts | 93° |
| 2026-04-26 22:50 | 32.77465 | -114.10362 | 25430 ft | 533 kts | 93° |
| 2026-04-26 22:50 | 32.77611 | -114.05982 | 25064 ft | 529 kts | 86° |
| 2026-04-26 22:50 | 32.78076 | -114.01647 | 24873 ft | 526 kts | 84° |
| 2026-04-26 22:50 | 32.78552 | -113.97336 | 24929 ft | 526 kts | 85° |
| 2026-04-26 22:51 | 32.79027 | -113.93027 | 24916 ft | 526 kts | 84° |
| 2026-04-26 22:51 | 32.79503 | -113.88697 | 24921 ft | 526 kts | 85° |
| 2026-04-26 22:51 | 32.79974 | -113.84377 | 24914 ft | 526 kts | 85° |
| 2026-04-26 22:51 | 32.80440 | -113.80058 | 24915 ft | 526 kts | 85° |
| 2026-04-26 22:52 | 32.80930 | -113.75806 | 24913 ft | 527 kts | 81° |
| 2026-04-26 22:52 | 32.81856 | -113.71583 | 24910 ft | 529 kts | 70° |
| 2026-04-26 22:52 | 32.83311 | -113.67644 | 24880 ft | 512 kts | 59° |
| 2026-04-26 22:52 | 32.85201 | -113.64133 | 24585 ft | 499 kts | 48° |
| 2026-04-26 22:53 | 32.87435 | -113.61023 | 24182 ft | 491 kts | 43° |
| 2026-04-26 22:53 | 32.89694 | -113.58009 | 23912 ft | 486 kts | 43° |
| 2026-04-26 22:53 | 32.91936 | -113.55009 | 23629 ft | 483 kts | 43° |
| 2026-04-26 22:53 | 32.94160 | -113.52021 | 23349 ft | 481 kts | 43° |
| 2026-04-26 22:54 | 32.96369 | -113.49045 | 23030 ft | 476 kts | 44° |
| 2026-04-26 22:54 | 32.98552 | -113.46099 | 22758 ft | 472 kts | 44° |
| 2026-04-26 22:54 | 33.00687 | -113.43211 | 22484 ft | 469 kts | 44° |
| 2026-04-26 22:54 | 33.02837 | -113.40297 | 22216 ft | 468 kts | 44° |
| 2026-04-26 22:55 | 33.04981 | -113.37393 | 21944 ft | 465 kts | 44° |
| 2026-04-26 22:55 | 33.07118 | -113.34503 | 21628 ft | 463 kts | 44° |
| 2026-04-26 22:55 | 33.09238 | -113.31640 | 21293 ft | 459 kts | 44° |
| 2026-04-26 22:55 | 33.11347 | -113.28794 | 20977 ft | 455 kts | 44° |
| 2026-04-26 22:56 | 33.13438 | -113.25966 | 20654 ft | 452 kts | 45° |
| 2026-04-26 22:56 | 33.15511 | -113.23156 | 20333 ft | 449 kts | 45° |
| 2026-04-26 22:56 | 33.17565 | -113.20369 | 20010 ft | 445 kts | 45° |
| 2026-04-26 22:56 | 33.19605 | -113.17602 | 19709 ft | 442 kts | 45° |
| 2026-04-26 22:57 | 33.21600 | -113.14891 | 19403 ft | 438 kts | 45° |
| 2026-04-26 22:57 | 33.23584 | -113.12191 | 19247 ft | 427 kts | 45° |
| 2026-04-26 22:57 | 33.25351 | -113.09370 | 18956 ft | 423 kts | 57° |
| 2026-04-26 22:57 | 33.26618 | -113.06229 | 18846 ft | 419 kts | 70° |
| 2026-04-26 22:58 | 33.27389 | -113.02882 | 18555 ft | 417 kts | 83° |
| 2026-04-26 22:58 | 33.27632 | -112.99461 | 18266 ft | 410 kts | 92° |
| 2026-04-26 22:58 | 33.27707 | -112.96052 | 18057 ft | 409 kts | 91° |
| 2026-04-26 22:58 | 33.27785 | -112.92655 | 17750 ft | 406 kts | 91° |
| 2026-04-26 22:59 | 33.27866 | -112.89285 | 17459 ft | 404 kts | 91° |
| 2026-04-26 22:59 | 33.27950 | -112.85944 | 17163 ft | 400 kts | 91° |
| 2026-04-26 22:59 | 33.28034 | -112.82663 | 16991 ft | 390 kts | 90° |
| 2026-04-26 22:59 | 33.28193 | -112.79460 | 16735 ft | 383 kts | 87° |
| 2026-04-26 23:00 | 33.28460 | -112.76305 | 16387 ft | 380 kts | 85° |
| 2026-04-26 23:00 | 33.28782 | -112.73177 | 16012 ft | 378 kts | 84° |
| 2026-04-26 23:00 | 33.29115 | -112.70131 | 15623 ft | 372 kts | 84° |
| 2026-04-26 23:00 | 33.29444 | -112.67077 | 15239 ft | 367 kts | 85° |
| 2026-04-26 23:01 | 33.29754 | -112.64061 | 14886 ft | 363 kts | 85° |
| 2026-04-26 23:01 | 33.30048 | -112.61063 | 14532 ft | 361 kts | 85° |
| 2026-04-26 23:01 | 33.30328 | -112.58086 | 14182 ft | 359 kts | 85° |
| 2026-04-26 23:01 | 33.30601 | -112.55127 | 13837 ft | 357 kts | 85° |
| 2026-04-26 23:02 | 33.30868 | -112.52193 | 13469 ft | 354 kts | 85° |
| 2026-04-26 23:02 | 33.31132 | -112.49286 | 13106 ft | 349 kts | 85° |
| 2026-04-26 23:02 | 33.31392 | -112.46425 | 12775 ft | 344 kts | 85° |
| 2026-04-26 23:02 | 33.31647 | -112.43599 | 12447 ft | 340 kts | 86° |
| 2026-04-26 23:03 | 33.31898 | -112.40844 | 12127 ft | 336 kts | 86° |
| 2026-04-26 23:03 | 33.32151 | -112.38071 | 11801 ft | 333 kts | 86° |
| 2026-04-26 23:03 | 33.32402 | -112.35324 | 11481 ft | 330 kts | 86° |
| 2026-04-26 23:03 | 33.32651 | -112.32605 | 11152 ft | 327 kts | 85° |
| 2026-04-26 23:04 | 33.32897 | -112.29915 | 10843 ft | 324 kts | 86° |
| 2026-04-26 23:04 | 33.33139 | -112.27247 | 10529 ft | 321 kts | 85° |
| 2026-04-26 23:04 | 33.33379 | -112.24596 | 10216 ft | 318 kts | 86° |
| 2026-04-26 23:04 | 33.33618 | -112.21972 | 9895 ft | 316 kts | 86° |
| 2026-04-26 23:05 | 33.33852 | -112.19400 | 9578 ft | 314 kts | 86° |
| 2026-04-26 23:05 | 33.34084 | -112.16828 | 9365 ft | 306 kts | 86° |
| 2026-04-26 23:05 | 33.34309 | -112.14328 | 9253 ft | 296 kts | 86° |
| 2026-04-26 23:05 | 33.34525 | -112.11923 | 9126 ft | 286 kts | 86° |
| 2026-04-26 23:06 | 33.34733 | -112.09578 | 9012 ft | 282 kts | 88° |
| 2026-04-26 23:06 | 33.34741 | -112.07246 | 8737 ft | 280 kts | 94° |
| 2026-04-26 23:06 | 33.34708 | -112.04921 | 8436 ft | 279 kts | 94° |
| 2026-04-26 23:06 | 33.34677 | -112.02603 | 8140 ft | 278 kts | 93° |
| 2026-04-26 23:07 | 33.34645 | -112.00319 | 7845 ft | 277 kts | 94° |
| 2026-04-26 23:07 | 33.34624 | -111.98765 | 7676 ft | 273 kts | 93° |
| 2026-04-26 23:07 | 33.34585 | -111.95804 | 7272 ft | 266 kts | 93° |
| 2026-04-26 23:07 | 33.34556 | -111.93612 | 7036 ft | 259 kts | 93° |
| 2026-04-26 23:08 | 33.34559 | -111.91480 | 7021 ft | 254 kts | 91° |
| 2026-04-26 23:08 | 33.34603 | -111.89347 | 7029 ft | 256 kts | 90° |
| 2026-04-26 23:08 | 33.34661 | -111.87225 | 7029 ft | 255 kts | 90° |
| 2026-04-26 23:08 | 33.34722 | -111.85125 | 6752 ft | 252 kts | 90° |
| 2026-04-26 23:09 | 33.34779 | -111.83025 | 6401 ft | 253 kts | 90° |
| 2026-04-26 23:09 | 33.34829 | -111.80953 | 6058 ft | 251 kts | 90° |
| 2026-04-26 23:09 | 33.34877 | -111.78865 | 5709 ft | 250 kts | 90° |
| 2026-04-26 23:09 | 33.34924 | -111.76776 | 5313 ft | 251 kts | 91° |
| 2026-04-26 23:10 | 33.34972 | -111.74694 | 5057 ft | 249 kts | 91° |
| 2026-04-26 23:10 | 33.35017 | -111.72623 | 5035 ft | 251 kts | 91° |
| 2026-04-26 23:10 | 33.35059 | -111.70534 | 5043 ft | 250 kts | 90° |
| 2026-04-26 23:10 | 33.35102 | -111.68443 | 5044 ft | 251 kts | 91° |
| 2026-04-26 23:11 | 33.35442 | -111.66391 | 5037 ft | 256 kts | 63° |
| 2026-04-26 23:11 | 33.36557 | -111.64795 | 5040 ft | 249 kts | 31° |
| 2026-04-26 23:11 | 33.38121 | -111.64080 | 5045 ft | 243 kts | 5° |
| 2026-04-26 23:11 | 33.39775 | -111.64021 | 5035 ft | 234 kts | 341° |
| 2026-04-26 23:12 | 33.41161 | -111.64894 | 5013 ft | 223 kts | 313° |
| 2026-04-26 23:12 | 33.42289 | -111.66151 | 5013 ft | 220 kts | 306° |
| 2026-04-26 23:12 | 33.43129 | -111.67644 | 5012 ft | 216 kts | 292° |
| 2026-04-26 23:12 | 33.43765 | -111.69262 | 5014 ft | 214 kts | 289° |
| 2026-04-26 23:13 | 33.44224 | -111.70939 | 5008 ft | 211 kts | 270° |
| 2026-04-26 23:13 | 33.44094 | -111.72657 | 5007 ft | 202 kts | 263° |
| 2026-04-26 23:13 | 33.44037 | -111.74250 | 5018 ft | 182 kts | 266° |
| 2026-04-26 23:13 | 33.44029 | -111.75754 | 4891 ft | 180 kts | 267° |
| 2026-04-26 23:14 | 33.44031 | -111.77211 | 4690 ft | 173 kts | 267° |
| 2026-04-26 23:14 | 33.44035 | -111.78648 | 4474 ft | 171 kts | 267° |
| 2026-04-26 23:14 | 33.44039 | -111.80088 | 4246 ft | 172 kts | 268° |
| 2026-04-26 23:14 | 33.44043 | -111.81524 | 4016 ft | 171 kts | 267° |
| 2026-04-26 23:15 | 33.44047 | -111.82940 | 3790 ft | 170 kts | 267° |
| 2026-04-26 23:15 | 33.44050 | -111.84376 | 3558 ft | 173 kts | 267° |
| 2026-04-26 23:15 | 33.44055 | -111.85789 | 3345 ft | 165 kts | 268° |
| 2026-04-26 23:15 | 33.44059 | -111.87111 | 3139 ft | 153 kts | 268° |
| 2026-04-26 23:16 | 33.44061 | -111.88384 | 2936 ft | 150 kts | 268° |
| 2026-04-26 23:16 | 33.44064 | -111.89602 | 2745 ft | 147 kts | 267° |
| 2026-04-26 23:16 | 33.44067 | -111.90817 | 2535 ft | 145 kts | 267° |
| 2026-04-26 23:16 | 33.44069 | -111.92035 | 2347 ft | 147 kts | 267° |
| 2026-04-26 23:17 | 33.44071 | -111.93271 | 2154 ft | 147 kts | 270° |
| 2026-04-26 23:17 | 33.44073 | -111.94481 | 1970 ft | 146 kts | 267° |
| 2026-04-26 23:17 | 33.44076 | -111.95700 | 1759 ft | 146 kts | 267° |
| 2026-04-26 23:17 | 33.44078 | -111.96947 | 1570 ft | 150 kts | 270° |
| 2026-04-26 23:18 | 33.44082 | -111.98164 | 1354 ft | 145 kts | 268° |
| 2026-04-26 23:18 | 33.44089 | -111.99376 | 1164 ft | 145 kts | 268° |
| 2026-04-26 23:18 | 33.44087 | -112.00479 | 1123 ft | 117 kts | 269° |
| 2026-04-26 23:18 | 33.44085 | -112.01298 | 1127 ft | 82 kts | 271° |
| 2026-04-26 23:19 | 33.44085 | -112.01857 | 1124 ft | 46 kts | 270° |
| 2026-04-26 23:19 | 33.44033 | -112.02032 | 1119 ft | 15 kts | 198° |
| 2026-04-26 23:19 | 33.43974 | -112.01966 | 1121 ft | 14 kts | 90° |
| 2026-04-26 23:19 | 33.43975 | -112.01873 | 1118 ft | 11 kts | 90° |
| 2026-04-26 23:20 | 33.43975 | -112.01782 | 1119 ft | 11 kts | 90° |
| 2026-04-26 23:20 | 33.43975 | -112.01688 | 1122 ft | 12 kts | 90° |
| 2026-04-26 23:20 | 33.43975 | -112.01589 | 1125 ft | 12 kts | 90° |
| 2026-04-26 23:20 | 33.43975 | -112.01480 | 1119 ft | 14 kts | 90° |
| 2026-04-26 23:21 | 33.43975 | -112.01363 | 1119 ft | 14 kts | 90° |
| 2026-04-26 23:21 | 33.43975 | -112.01282 | 1121 ft | 15 kts | 90° |
| 2026-04-26 23:21 | 33.43975 | -112.01176 | 1123 ft | 11 kts | 90° |
| 2026-04-26 23:21 | 33.43974 | -112.01046 | 1119 ft | 13 kts | 90° |
| 2026-04-26 23:22 | 33.43974 | -112.00974 | 1119 ft | 14 kts | 90° |
| 2026-04-26 23:22 | 33.43974 | -112.00814 | 1118 ft | 15 kts | 90° |
| 2026-04-26 23:22 | 33.43974 | -112.00689 | 1124 ft | 16 kts | 90° |
| 2026-04-26 23:22 | 33.43974 | -112.00600 | 1118 ft | 16 kts | 90° |
| 2026-04-26 23:23 | 33.43974 | -112.00461 | 1120 ft | 17 kts | 90° |
| 2026-04-26 23:23 | 33.43974 | -112.00314 | 1122 ft | 18 kts | 90° |
| 2026-04-26 23:23 | 33.43973 | -112.00166 | 1124 ft | 18 kts | 90° |
| 2026-04-26 23:23 | 33.43973 | -112.00014 | 1119 ft | 18 kts | 90° |
| 2026-04-26 23:24 | 33.43973 | -111.99908 | 1119 ft | 10 kts | 90° |
| 2026-04-26 23:24 | 33.43942 | -111.99841 | 1122 ft | 10 kts | 167° |
| 2026-04-26 23:24 | 33.43875 | -111.99827 | 1120 ft | 10 kts | 170° |
| 2026-04-26 23:24 | 33.43810 | -111.99826 | 1119 ft | 8 kts | 180° |
| 2026-04-26 23:25 | 33.43761 | -111.99839 | 1115 ft | 7 kts | 230° |
| 2026-04-26 23:25 | 33.43758 | -111.99873 | 1120 ft | 3 kts | 269° |
| 2026-04-26 23:25 | 33.43758 | -111.99876 | 1121 ft | 0 kts | 269° |